Main page
METAR-TAF:

METAR-TAF

Airports :

Harbin Taiping International Airport

Harbin, China

latitude: 45-45N, longitude: 126-46E, elevation: 143 m

Current weather observation

The report was made 40 minutes ago, at 22:00 UTC
Wind 8 kt from the South, varying between East/Southeast and South
Temperature 12°C
Humidity 76%
Pressure 1016 hPa
Visibility 10 km or more
no clouds below 1500 m and no cumulonimbus

METAR: ZYHB 202200Z 17004MPS 120V190 CAVOK 12/08 Q1016 NOSIG

Time: 06:40 (22:40 UTC)

Forecast

The report was made 7 hours and 38 minutes ago, at 15:02 UTC
Forecast valid from 20 at 18 UTC to 21 at 18 UTC
Wind 8 kt from the South
Visibility: 6000 m
Scattered clouds at a height of 3000 ft
Becoming
from 21 at 00 UTC to 21 at 02 UTC
Wind 17 kt from the South/Southwest with gusts up to 33 kt

TAF: ZYHB 201502Z 2018/2118 18004MPS 6000 SCT030 TX28/2106Z TN11/2021Z BECMG 2100/2102 21009G17MPS

Weather observations and forecasts of more than 4000 airports (METAR and TAF reports).

The available stations are represented by yellow and red dots on the map.

Hover mouse over dot to see the name of the station.

Then click to see weather observations and forecasts.

To change the map : click on the green buttons with a black cross to zoom in, on the green button with a dash to zoom out, or on the green arrows for adjacent maps.


METAR-TAF: